sensor_id;sensor_type;location;lat;lon;timestamp;temperature;humidity
31455;DHT22;18084;53.028;8.834;2022-07-31T09:40:21;24.50;99.90
31455;DHT22;18084;53.028;8.834;2022-07-31T09:43:20;24.90;99.90
31455;DHT22;18084;53.028;8.834;2022-07-31T09:46:37;24.60;99.90
31455;DHT22;18084;53.028;8.834;2022-07-31T09:49:26;24.60;99.90
31455;DHT22;18084;53.028;8.834;2022-07-31T10:23:05;24.80;99.90
31455;DHT22;18084;53.028;8.834;2022-07-31T10:25:56;24.80;99.90
31455;DHT22;18084;53.028;8.834;2022-07-31T10:34:13;25.10;99.90
31455;DHT22;18084;53.028;8.834;2022-07-31T10:36:44;25.40;99.90
31455;DHT22;18084;53.028;8.834;2022-07-31T15:00:15;22.40;99.90
31455;DHT22;18084;53.028;8.834;2022-07-31T15:02:42;22.40;1.00
31455;DHT22;18084;53.028;8.834;2022-07-31T15:05:08;22.30;1.00
31455;DHT22;18084;53.028;8.834;2022-07-31T15:07:34;24.50;1.00
31455;DHT22;18084;53.028;8.834;2022-07-31T15:10:01;22.10;1.00
31455;DHT22;18084;53.028;8.834;2022-07-31T15:12:26;21.80;56.10
31455;DHT22;18084;53.028;8.834;2022-07-31T15:17:23;21.70;55.70
31455;DHT22;18084;53.028;8.834;2022-07-31T15:19:52;21.50;83.20
31455;DHT22;18084;53.028;8.834;2022-07-31T15:22:20;23.30;96.40
31455;DHT22;18084;53.028;8.834;2022-07-31T15:24:49;21.20;99.90
31455;DHT22;18084;53.028;8.834;2022-07-31T15:27:15;21.20;99.90
31455;DHT22;18084;53.028;8.834;2022-07-31T15:29:40;21.00;99.90
31455;DHT22;18084;53.028;8.834;2022-07-31T15:34:33;20.60;99.90
31455;DHT22;18084;53.028;8.834;2022-07-31T15:36:59;20.20;99.90
31455;DHT22;18084;53.028;8.834;2022-07-31T15:39:26;20.10;99.90
31455;DHT22;18084;53.028;8.834;2022-07-31T15:41:52;19.90;99.90
31455;DHT22;18084;53.028;8.834;2022-07-31T15:44:18;19.80;99.90
31455;DHT22;18084;53.028;8.834;2022-07-31T15:46:47;19.70;99.90
31455;DHT22;18084;53.028;8.834;2022-07-31T15:49:13;19.70;99.90
31455;DHT22;18084;53.028;8.834;2022-07-31T15:51:42;19.60;99.90
31455;DHT22;18084;53.028;8.834;2022-07-31T15:54:07;19.60;99.90
31455;DHT22;18084;53.028;8.834;2022-07-31T15:56:33;19.40;99.90
31455;DHT22;18084;53.028;8.834;2022-07-31T15:58:58;19.40;99.90
31455;DHT22;18084;53.028;8.834;2022-07-31T16:01:25;19.20;99.90
31455;DHT22;18084;53.028;8.834;2022-07-31T16:03:51;19.20;99.90
31455;DHT22;18084;53.028;8.834;2022-07-31T16:06:16;19.10;99.90
31455;DHT22;18084;53.028;8.834;2022-07-31T16:08:42;19.00;99.90
31455;DHT22;18084;53.028;8.834;2022-07-31T16:11:07;18.80;99.90
31455;DHT22;18084;53.028;8.834;2022-07-31T16:13:33;18.90;99.90
31455;DHT22;18084;53.028;8.834;2022-07-31T16:20:52;18.80;99.90
31455;DHT22;18084;53.028;8.834;2022-07-31T16:28:10;18.70;99.90
31455;DHT22;18084;53.028;8.834;2022-07-31T16:30:36;18.70;99.90
31455;DHT22;18084;53.028;8.834;2022-07-31T16:33:01;18.20;99.90
31455;DHT22;18084;53.028;8.834;2022-07-31T16:35:27;18.70;99.90
31455;DHT22;18084;53.028;8.834;2022-07-31T16:37:53;18.70;99.90
31455;DHT22;18084;53.028;8.834;2022-07-31T16:40:20;18.80;99.90
31455;DHT22;18084;53.028;8.834;2022-07-31T16:45:18;18.80;99.90
31455;DHT22;18084;53.028;8.834;2022-07-31T16:47:43;18.80;99.90
31455;DHT22;18084;53.028;8.834;2022-07-31T16:50:09;18.80;99.90
31455;DHT22;18084;53.028;8.834;2022-07-31T16:52:35;18.80;99.90
31455;DHT22;18084;53.028;8.834;2022-07-31T16:55:00;18.80;99.90
31455;DHT22;18084;53.028;8.834;2022-07-31T16:57:27;18.80;99.90
31455;DHT22;18084;53.028;8.834;2022-07-31T16:59:52;18.80;99.90
31455;DHT22;18084;53.028;8.834;2022-07-31T17:02:18;18.80;99.90
31455;DHT22;18084;53.028;8.834;2022-07-31T17:04:44;18.80;99.90
31455;DHT22;18084;53.028;8.834;2022-07-31T17:07:10;18.80;99.90
31455;DHT22;18084;53.028;8.834;2022-07-31T17:09:36;18.80;99.90
31455;DHT22;18084;53.028;8.834;2022-07-31T17:12:01;18.80;99.90
31455;DHT22;18084;53.028;8.834;2022-07-31T17:14:28;18.90;99.90
31455;DHT22;18084;53.028;8.834;2022-07-31T17:16:54;18.80;99.90
31455;DHT22;18084;53.028;8.834;2022-07-31T17:19:22;18.80;99.90
31455;DHT22;18084;53.028;8.834;2022-07-31T17:21:48;18.90;99.90
31455;DHT22;18084;53.028;8.834;2022-07-31T17:24:14;19.00;99.90
31455;DHT22;18084;53.028;8.834;2022-07-31T17:26:40;19.40;99.90
31455;DHT22;18084;53.028;8.834;2022-07-31T17:29:05;18.90;99.90
31455;DHT22;18084;53.028;8.834;2022-07-31T17:31:31;18.90;99.90
31455;DHT22;18084;53.028;8.834;2022-07-31T17:33:56;19.40;99.90
31455;DHT22;18084;53.028;8.834;2022-07-31T17:36:22;22.10;99.90
31455;DHT22;18084;53.028;8.834;2022-07-31T17:38:47;19.20;99.90
31455;DHT22;18084;53.028;8.834;2022-07-31T17:41:13;19.30;99.90
31455;DHT22;18084;53.028;8.834;2022-07-31T17:43:38;19.50;99.90
31455;DHT22;18084;53.028;8.834;2022-07-31T17:46:04;19.50;99.90
31455;DHT22;18084;53.028;8.834;2022-07-31T17:48:30;19.40;99.90
31455;DHT22;18084;53.028;8.834;2022-07-31T17:50:55;19.50;99.90
31455;DHT22;18084;53.028;8.834;2022-07-31T17:53:21;19.50;99.90
31455;DHT22;18084;53.028;8.834;2022-07-31T17:55:47;19.60;99.90
31455;DHT22;18084;53.028;8.834;2022-07-31T17:58:15;21.10;99.90
31455;DHT22;18084;53.028;8.834;2022-07-31T18:00:41;19.50;99.90
31455;DHT22;18084;53.028;8.834;2022-07-31T18:03:07;19.50;99.90
31455;DHT22;18084;53.028;8.834;2022-07-31T18:05:32;19.40;99.90
31455;DHT22;18084;53.028;8.834;2022-07-31T18:07:58;19.30;99.90
31455;DHT22;18084;53.028;8.834;2022-07-31T18:10:23;19.30;99.90
31455;DHT22;18084;53.028;8.834;2022-07-31T18:12:49;19.30;99.90
31455;DHT22;18084;53.028;8.834;2022-07-31T18:15:14;19.30;99.90
31455;DHT22;18084;53.028;8.834;2022-07-31T18:17:44;19.20;99.90
31455;DHT22;18084;53.028;8.834;2022-07-31T18:20:12;19.30;99.90
31455;DHT22;18084;53.028;8.834;2022-07-31T18:22:38;19.20;99.90
31455;DHT22;18084;53.028;8.834;2022-07-31T18:25:05;19.30;99.90
31455;DHT22;18084;53.028;8.834;2022-07-31T18:27:31;19.20;99.90
31455;DHT22;18084;53.028;8.834;2022-07-31T18:29:57;19.10;99.90
31455;DHT22;18084;53.028;8.834;2022-07-31T18:32:22;19.20;99.90
31455;DHT22;18084;53.028;8.834;2022-07-31T18:34:48;19.20;99.90
31455;DHT22;18084;53.028;8.834;2022-07-31T18:37:17;18.90;99.90
31455;DHT22;18084;53.028;8.834;2022-07-31T18:39:45;19.20;99.90
31455;DHT22;18084;53.028;8.834;2022-07-31T18:42:11;19.20;99.90
31455;DHT22;18084;53.028;8.834;2022-07-31T18:44:36;18.50;99.90
31455;DHT22;18084;53.028;8.834;2022-07-31T18:47:02;18.80;99.90
31455;DHT22;18084;53.028;8.834;2022-07-31T18:49:28;19.20;99.90
31455;DHT22;18084;53.028;8.834;2022-07-31T18:51:53;19.20;99.90
31455;DHT22;18084;53.028;8.834;2022-07-31T18:54:19;19.20;99.90
31455;DHT22;18084;53.028;8.834;2022-07-31T18:56:45;19.20;99.90
31455;DHT22;18084;53.028;8.834;2022-07-31T18:59:10;19.10;99.90
31455;DHT22;18084;53.028;8.834;2022-07-31T19:01:36;19.10;99.90
31455;DHT22;18084;53.028;8.834;2022-07-31T19:04:01;19.10;99.90
31455;DHT22;18084;53.028;8.834;2022-07-31T19:06:27;19.10;99.90
31455;DHT22;18084;53.028;8.834;2022-07-31T19:08:52;19.10;99.90
31455;DHT22;18084;53.028;8.834;2022-07-31T19:11:18;19.10;99.90
31455;DHT22;18084;53.028;8.834;2022-07-31T19:13:44;19.10;99.90
31455;DHT22;18084;53.028;8.834;2022-07-31T19:18:38;19.00;99.90
31455;DHT22;18084;53.028;8.834;2022-07-31T19:23:31;18.90;99.90
31455;DHT22;18084;53.028;8.834;2022-07-31T19:35:41;19.00;99.90
31455;DHT22;18084;53.028;8.834;2022-07-31T19:42:59;19.00;99.90
31455;DHT22;18084;53.028;8.834;2022-07-31T19:50:17;19.00;99.90
31455;DHT22;18084;53.028;8.834;2022-07-31T19:55:08;19.00;99.90
31455;DHT22;18084;53.028;8.834;2022-07-31T20:00:01;18.90;99.90
31455;DHT22;18084;53.028;8.834;2022-07-31T20:04:52;18.90;99.90
31455;DHT22;18084;53.028;8.834;2022-07-31T20:07:23;18.90;99.90
31455;DHT22;18084;53.028;8.834;2022-07-31T20:09:48;19.00;99.90
31455;DHT22;18084;53.028;8.834;2022-07-31T20:12:14;18.90;99.90
31455;DHT22;18084;53.028;8.834;2022-07-31T20:14:40;18.90;99.90
31455;DHT22;18084;53.028;8.834;2022-07-31T20:17:06;18.90;99.90
31455;DHT22;18084;53.028;8.834;2022-07-31T20:19:32;18.90;99.90
31455;DHT22;18084;53.028;8.834;2022-07-31T20:21:57;20.70;99.90
31455;DHT22;18084;53.028;8.834;2022-07-31T20:24:23;18.90;99.90
31455;DHT22;18084;53.028;8.834;2022-07-31T20:26:51;18.90;99.90
31455;DHT22;18084;53.028;8.834;2022-07-31T20:29:17;18.60;99.90
31455;DHT22;18084;53.028;8.834;2022-07-31T20:34:08;18.90;99.90
31455;DHT22;18084;53.028;8.834;2022-07-31T20:38:59;19.00;99.90
31455;DHT22;18084;53.028;8.834;2022-07-31T20:43:54;19.00;99.90
31455;DHT22;18084;53.028;8.834;2022-07-31T20:46:19;19.10;99.90
31455;DHT22;18084;53.028;8.834;2022-07-31T20:48:45;19.00;99.90
31455;DHT22;18084;53.028;8.834;2022-07-31T20:51:11;19.10;99.90
31455;DHT22;18084;53.028;8.834;2022-07-31T20:53:45;19.00;99.90
31455;DHT22;18084;53.028;8.834;2022-07-31T20:56:10;19.10;99.90
31455;DHT22;18084;53.028;8.834;2022-07-31T20:58:36;19.00;99.90
31455;DHT22;18084;53.028;8.834;2022-07-31T21:01:01;19.00;99.90
31455;DHT22;18084;53.028;8.834;2022-07-31T21:03:27;19.00;99.90
31455;DHT22;18084;53.028;8.834;2022-07-31T21:05:53;19.00;99.90
31455;DHT22;18084;53.028;8.834;2022-07-31T21:08:19;19.00;99.90
31455;DHT22;18084;53.028;8.834;2022-07-31T21:13:11;19.00;99.90
31455;DHT22;18084;53.028;8.834;2022-07-31T21:15:36;19.00;99.90
31455;DHT22;18084;53.028;8.834;2022-07-31T21:18:02;19.10;99.90
31455;DHT22;18084;53.028;8.834;2022-07-31T21:20:28;19.00;99.90
31455;DHT22;18084;53.028;8.834;2022-07-31T21:22:54;19.00;99.90
31455;DHT22;18084;53.028;8.834;2022-07-31T21:25:20;19.00;99.90
31455;DHT22;18084;53.028;8.834;2022-07-31T21:27:45;19.00;99.90
31455;DHT22;18084;53.028;8.834;2022-07-31T21:30:11;19.00;99.90
31455;DHT22;18084;53.028;8.834;2022-07-31T21:32:37;19.10;99.90
31455;DHT22;18084;53.028;8.834;2022-07-31T21:35:03;19.00;99.90
31455;DHT22;18084;53.028;8.834;2022-07-31T21:37:30;19.10;99.90
31455;DHT22;18084;53.028;8.834;2022-07-31T21:39:56;19.10;99.90
31455;DHT22;18084;53.028;8.834;2022-07-31T21:42:21;19.10;99.90
31455;DHT22;18084;53.028;8.834;2022-07-31T21:44:47;19.10;99.90
31455;DHT22;18084;53.028;8.834;2022-07-31T21:47:14;19.00;99.90
31455;DHT22;18084;53.028;8.834;2022-07-31T21:49:40;19.00;99.90
31455;DHT22;18084;53.028;8.834;2022-07-31T21:52:06;19.10;99.90
31455;DHT22;18084;53.028;8.834;2022-07-31T21:54:32;19.10;99.90
31455;DHT22;18084;53.028;8.834;2022-07-31T21:56:58;19.00;99.90
31455;DHT22;18084;53.028;8.834;2022-07-31T21:59:23;19.10;99.90
31455;DHT22;18084;53.028;8.834;2022-07-31T22:01:49;19.00;99.90
31455;DHT22;18084;53.028;8.834;2022-07-31T22:04:15;19.10;99.90
31455;DHT22;18084;53.028;8.834;2022-07-31T22:06:40;19.10;99.90
31455;DHT22;18084;53.028;8.834;2022-07-31T22:09:24;21.80;99.90
31455;DHT22;18084;53.028;8.834;2022-07-31T22:11:51;18.80;99.90
31455;DHT22;18084;53.028;8.834;2022-07-31T22:14:16;19.00;99.90
31455;DHT22;18084;53.028;8.834;2022-07-31T22:16:42;18.90;99.90
31455;DHT22;18084;53.028;8.834;2022-07-31T22:19:08;18.80;99.90
31455;DHT22;18084;53.028;8.834;2022-07-31T22:21:33;18.90;99.90
31455;DHT22;18084;53.028;8.834;2022-07-31T22:23:59;18.90;99.90
31455;DHT22;18084;53.028;8.834;2022-07-31T22:26:25;18.90;99.90
31455;DHT22;18084;53.028;8.834;2022-07-31T22:28:52;18.80;99.90
31455;DHT22;18084;53.028;8.834;2022-07-31T22:31:18;18.90;99.90
31455;DHT22;18084;53.028;8.834;2022-07-31T22:33:43;18.90;99.90
31455;DHT22;18084;53.028;8.834;2022-07-31T22:36:09;18.90;99.90
31455;DHT22;18084;53.028;8.834;2022-07-31T22:43:29;18.90;99.90
31455;DHT22;18084;53.028;8.834;2022-07-31T22:48:23;18.90;99.90
31455;DHT22;18084;53.028;8.834;2022-07-31T22:55:40;18.90;99.90
31455;DHT22;18084;53.028;8.834;2022-07-31T23:05:27;18.70;99.90
31455;DHT22;18084;53.028;8.834;2022-07-31T23:10:19;18.70;99.90
31455;DHT22;18084;53.028;8.834;2022-07-31T23:12:44;18.30;99.90
31455;DHT22;18084;53.028;8.834;2022-07-31T23:17:36;18.70;99.90
31455;DHT22;18084;53.028;8.834;2022-07-31T23:20:02;18.70;99.90
31455;DHT22;18084;53.028;8.834;2022-07-31T23:24:54;18.70;99.90
31455;DHT22;18084;53.028;8.834;2022-07-31T23:29:45;18.70;99.90
31455;DHT22;18084;53.028;8.834;2022-07-31T23:32:11;18.70;99.90
31455;DHT22;18084;53.028;8.834;2022-07-31T23:34:36;18.50;99.90
31455;DHT22;18084;53.028;8.834;2022-07-31T23:37:02;20.00;99.90
31455;DHT22;18084;53.028;8.834;2022-07-31T23:39:28;18.60;99.90
31455;DHT22;18084;53.028;8.834;2022-07-31T23:41:54;18.70;99.90
31455;DHT22;18084;53.028;8.834;2022-07-31T23:44:38;18.70;99.90
31455;DHT22;18084;53.028;8.834;2022-07-31T23:47:04;18.50;99.90
31455;DHT22;18084;53.028;8.834;2022-07-31T23:49:29;18.70;99.90
31455;DHT22;18084;53.028;8.834;2022-07-31T23:51:55;18.60;99.90
31455;DHT22;18084;53.028;8.834;2022-07-31T23:54:20;18.60;99.90
31455;DHT22;18084;53.028;8.834;2022-07-31T23:56:46;18.60;99.90
31455;DHT22;18084;53.028;8.834;2022-07-31T23:59:11;19.00;99.90
